sensor_id;sensor_type;location;lat;lon;timestamp;temperature;humidity
7516;DHT22;3799;47.184;8.538;2022-09-20T00:01:56;11.90;97.30
7516;DHT22;3799;47.184;8.538;2022-09-20T00:04:22;11.80;97.40
7516;DHT22;3799;47.184;8.538;2022-09-20T00:06:48;12.00;97.40
7516;DHT22;3799;47.184;8.538;2022-09-20T00:09:13;11.80;97.30
7516;DHT22;3799;47.184;8.538;2022-09-20T00:11:39;11.90;97.20
7516;DHT22;3799;47.184;8.538;2022-09-20T00:14:05;11.60;97.10
7516;DHT22;3799;47.184;8.538;2022-09-20T00:16:34;11.80;97.60
7516;DHT22;3799;47.184;8.538;2022-09-20T00:19:00;11.80;97.80
7516;DHT22;3799;47.184;8.538;2022-09-20T00:21:28;11.70;97.80
7516;DHT22;3799;47.184;8.538;2022-09-20T00:23:55;11.50;97.30
7516;DHT22;3799;47.184;8.538;2022-09-20T00:26:22;11.40;97.00
7516;DHT22;3799;47.184;8.538;2022-09-20T00:28:47;11.50;96.90
7516;DHT22;3799;47.184;8.538;2022-09-20T00:31:13;11.50;97.10
7516;DHT22;3799;47.184;8.538;2022-09-20T00:33:39;11.40;97.30
7516;DHT22;3799;47.184;8.538;2022-09-20T00:36:24;11.40;97.90
7516;DHT22;3799;47.184;8.538;2022-09-20T00:38:55;11.50;97.80
7516;DHT22;3799;47.184;8.538;2022-09-20T00:41:21;11.10;97.70
7516;DHT22;3799;47.184;8.538;2022-09-20T00:43:46;11.20;97.80
7516;DHT22;3799;47.184;8.538;2022-09-20T00:46:16;11.50;98.40
7516;DHT22;3799;47.184;8.538;2022-09-20T00:48:43;11.30;98.80
7516;DHT22;3799;47.184;8.538;2022-09-20T00:51:10;11.30;99.30
7516;DHT22;3799;47.184;8.538;2022-09-20T00:53:39;11.20;99.20
7516;DHT22;3799;47.184;8.538;2022-09-20T00:56:08;11.30;99.50
7516;DHT22;3799;47.184;8.538;2022-09-20T00:58:35;11.10;99.50
7516;DHT22;3799;47.184;8.538;2022-09-20T01:01:02;11.20;99.30
7516;DHT22;3799;47.184;8.538;2022-09-20T01:03:29;11.30;98.90
7516;DHT22;3799;47.184;8.538;2022-09-20T01:05:56;10.80;98.60
7516;DHT22;3799;47.184;8.538;2022-09-20T01:08:24;11.10;98.90
7516;DHT22;3799;47.184;8.538;2022-09-20T01:10:50;11.00;98.60
7516;DHT22;3799;47.184;8.538;2022-09-20T01:13:15;11.20;99.00
7516;DHT22;3799;47.184;8.538;2022-09-20T01:15:41;11.00;99.00
7516;DHT22;3799;47.184;8.538;2022-09-20T01:18:08;11.10;99.30
7516;DHT22;3799;47.184;8.538;2022-09-20T01:20:35;11.00;99.40
7516;DHT22;3799;47.184;8.538;2022-09-20T01:27:58;10.70;99.70
7516;DHT22;3799;47.184;8.538;2022-09-20T01:30:24;10.90;99.90
7516;DHT22;3799;47.184;8.538;2022-09-20T01:35:22;10.70;99.90
7516;DHT22;3799;47.184;8.538;2022-09-20T01:43:33;10.50;99.90
7516;DHT22;3799;47.184;8.538;2022-09-20T01:45:51;10.70;99.90
7516;DHT22;3799;47.184;8.538;2022-09-20T01:51:07;10.60;99.90
7516;DHT22;3799;47.184;8.538;2022-09-20T01:59:28;10.20;99.90
7516;DHT22;3799;47.184;8.538;2022-09-20T02:17:12;9.80;99.90
7516;DHT22;3799;47.184;8.538;2022-09-20T02:33:02;9.90;99.90
7516;DHT22;3799;47.184;8.538;2022-09-20T02:43:52;9.80;99.90
7516;DHT22;3799;47.184;8.538;2022-09-20T02:46:28;9.70;99.90
7516;DHT22;3799;47.184;8.538;2022-09-20T02:51:45;9.60;99.90
7516;DHT22;3799;47.184;8.538;2022-09-20T03:07:16;9.20;99.90
7516;DHT22;3799;47.184;8.538;2022-09-20T03:17:50;9.30;99.90
7516;DHT22;3799;47.184;8.538;2022-09-20T03:20:29;9.30;99.90
7516;DHT22;3799;47.184;8.538;2022-09-20T03:23:17;9.50;99.90
7516;DHT22;3799;47.184;8.538;2022-09-20T03:25:52;9.50;99.90
7516;DHT22;3799;47.184;8.538;2022-09-20T03:28:26;9.30;99.90
7516;DHT22;3799;47.184;8.538;2022-09-20T03:41:23;9.10;99.90
7516;DHT22;3799;47.184;8.538;2022-09-20T03:44:00;9.20;99.90
7516;DHT22;3799;47.184;8.538;2022-09-20T03:46:32;9.20;99.90
7516;DHT22;3799;47.184;8.538;2022-09-20T03:56:56;9.30;99.90
7516;DHT22;3799;47.184;8.538;2022-09-20T04:05:00;9.20;99.90
7516;DHT22;3799;47.184;8.538;2022-09-20T04:10:25;9.30;99.90
7516;DHT22;3799;47.184;8.538;2022-09-20T04:15:28;9.00;99.90
7516;DHT22;3799;47.184;8.538;2022-09-20T04:18:04;8.90;99.90
7516;DHT22;3799;47.184;8.538;2022-09-20T04:20:42;9.10;99.90
7516;DHT22;3799;47.184;8.538;2022-09-20T04:26:02;9.00;99.90
7516;DHT22;3799;47.184;8.538;2022-09-20T04:28:45;9.00;99.90
7516;DHT22;3799;47.184;8.538;2022-09-20T04:31:46;9.10;99.90
7516;DHT22;3799;47.184;8.538;2022-09-20T04:34:05;9.10;99.90
7516;DHT22;3799;47.184;8.538;2022-09-20T04:36:36;9.10;99.90
7516;DHT22;3799;47.184;8.538;2022-09-20T04:39:33;9.00;99.90
7516;DHT22;3799;47.184;8.538;2022-09-20T04:42:08;9.10;99.90
7516;DHT22;3799;47.184;8.538;2022-09-20T04:47:28;8.90;99.90
7516;DHT22;3799;47.184;8.538;2022-09-20T05:11:47;8.40;99.90
7516;DHT22;3799;47.184;8.538;2022-09-20T05:19:25;8.60;99.90
7516;DHT22;3799;47.184;8.538;2022-09-20T05:22:14;8.60;99.90
7516;DHT22;3799;47.184;8.538;2022-09-20T05:25:06;8.40;99.90
7516;DHT22;3799;47.184;8.538;2022-09-20T05:27:44;8.30;99.90
7516;DHT22;3799;47.184;8.538;2022-09-20T05:35:44;8.40;99.90
7516;DHT22;3799;47.184;8.538;2022-09-20T05:38:23;8.40;99.90
7516;DHT22;3799;47.184;8.538;2022-09-20T05:49:09;8.40;99.90
7516;DHT22;3799;47.184;8.538;2022-09-20T06:04:20;8.60;99.90
7516;DHT22;3799;47.184;8.538;2022-09-20T06:11:47;8.90;99.90
7516;DHT22;3799;47.184;8.538;2022-09-20T06:20:28;8.90;99.90
7516;DHT22;3799;47.184;8.538;2022-09-20T06:22:26;8.80;99.90
7516;DHT22;3799;47.184;8.538;2022-09-20T06:27:36;9.00;99.90
7516;DHT22;3799;47.184;8.538;2022-09-20T06:30:04;9.10;99.90
7516;DHT22;3799;47.184;8.538;2022-09-20T06:32:31;9.30;99.90
7516;DHT22;3799;47.184;8.538;2022-09-20T06:34:59;9.40;99.90
7516;DHT22;3799;47.184;8.538;2022-09-20T06:40:30;9.60;99.90
7516;DHT22;3799;47.184;8.538;2022-09-20T06:43:15;9.80;99.90
7516;DHT22;3799;47.184;8.538;2022-09-20T06:45:41;9.80;99.90
7516;DHT22;3799;47.184;8.538;2022-09-20T06:48:07;10.10;99.90
7516;DHT22;3799;47.184;8.538;2022-09-20T06:50:38;10.20;99.90
7516;DHT22;3799;47.184;8.538;2022-09-20T06:53:04;10.20;99.90
7516;DHT22;3799;47.184;8.538;2022-09-20T06:55:31;10.00;99.90
7516;DHT22;3799;47.184;8.538;2022-09-20T06:57:59;10.10;99.90
7516;DHT22;3799;47.184;8.538;2022-09-20T07:00:25;10.40;99.90
7516;DHT22;3799;47.184;8.538;2022-09-20T07:02:50;10.30;99.90
7516;DHT22;3799;47.184;8.538;2022-09-20T07:05:16;10.30;99.90
7516;DHT22;3799;47.184;8.538;2022-09-20T07:07:42;10.40;99.90
7516;DHT22;3799;47.184;8.538;2022-09-20T07:10:09;10.20;99.90
7516;DHT22;3799;47.184;8.538;2022-09-20T07:12:35;10.30;99.90
7516;DHT22;3799;47.184;8.538;2022-09-20T07:15:00;10.50;99.90
7516;DHT22;3799;47.184;8.538;2022-09-20T07:17:26;10.40;99.90
7516;DHT22;3799;47.184;8.538;2022-09-20T07:19:52;10.30;99.90
7516;DHT22;3799;47.184;8.538;2022-09-20T07:22:17;10.50;99.90
7516;DHT22;3799;47.184;8.538;2022-09-20T07:24:43;10.70;99.90
7516;DHT22;3799;47.184;8.538;2022-09-20T07:27:09;10.60;99.90
7516;DHT22;3799;47.184;8.538;2022-09-20T07:29:35;10.80;99.90
7516;DHT22;3799;47.184;8.538;2022-09-20T07:32:03;10.80;99.90
7516;DHT22;3799;47.184;8.538;2022-09-20T07:34:29;10.90;99.90
7516;DHT22;3799;47.184;8.538;2022-09-20T07:36:55;10.90;99.90
7516;DHT22;3799;47.184;8.538;2022-09-20T07:39:21;11.10;99.90
7516;DHT22;3799;47.184;8.538;2022-09-20T07:41:47;10.90;99.90
7516;DHT22;3799;47.184;8.538;2022-09-20T07:44:15;11.20;99.90
7516;DHT22;3799;47.184;8.538;2022-09-20T07:46:56;11.30;99.90
7516;DHT22;3799;47.184;8.538;2022-09-20T07:49:22;11.70;99.90
7516;DHT22;3799;47.184;8.538;2022-09-20T07:51:51;11.60;99.90
7516;DHT22;3799;47.184;8.538;2022-09-20T07:54:17;11.80;99.90
7516;DHT22;3799;47.184;8.538;2022-09-20T07:56:43;11.90;99.90
7516;DHT22;3799;47.184;8.538;2022-09-20T07:59:09;11.90;99.90
7516;DHT22;3799;47.184;8.538;2022-09-20T08:01:35;11.90;99.90
7516;DHT22;3799;47.184;8.538;2022-09-20T08:04:01;12.20;99.90
7516;DHT22;3799;47.184;8.538;2022-09-20T08:06:28;12.20;99.90
7516;DHT22;3799;47.184;8.538;2022-09-20T08:08:55;12.40;99.90
7516;DHT22;3799;47.184;8.538;2022-09-20T08:11:22;12.50;99.90
7516;DHT22;3799;47.184;8.538;2022-09-20T08:13:53;12.40;99.90
7516;DHT22;3799;47.184;8.538;2022-09-20T08:16:19;12.50;99.90
7516;DHT22;3799;47.184;8.538;2022-09-20T08:18:45;12.60;99.90
7516;DHT22;3799;47.184;8.538;2022-09-20T08:21:11;12.60;99.90
7516;DHT22;3799;47.184;8.538;2022-09-20T08:23:39;12.50;99.90
7516;DHT22;3799;47.184;8.538;2022-09-20T08:26:07;12.80;99.90
7516;DHT22;3799;47.184;8.538;2022-09-20T08:28:33;13.10;99.90
7516;DHT22;3799;47.184;8.538;2022-09-20T08:31:02;12.90;99.90
7516;DHT22;3799;47.184;8.538;2022-09-20T08:33:28;13.20;99.90
7516;DHT22;3799;47.184;8.538;2022-09-20T08:35:54;13.40;99.90
7516;DHT22;3799;47.184;8.538;2022-09-20T08:38:19;13.10;99.90
7516;DHT22;3799;47.184;8.538;2022-09-20T08:40:46;13.20;99.90
7516;DHT22;3799;47.184;8.538;2022-09-20T08:43:13;13.30;99.90
7516;DHT22;3799;47.184;8.538;2022-09-20T08:45:39;13.40;99.90
7516;DHT22;3799;47.184;8.538;2022-09-20T08:48:06;13.40;99.90
7516;DHT22;3799;47.184;8.538;2022-09-20T08:50:35;13.50;99.90
7516;DHT22;3799;47.184;8.538;2022-09-20T08:53:01;13.50;99.90
7516;DHT22;3799;47.184;8.538;2022-09-20T08:55:30;13.90;99.90
7516;DHT22;3799;47.184;8.538;2022-09-20T08:57:57;14.10;99.90
7516;DHT22;3799;47.184;8.538;2022-09-20T09:00:32;14.30;99.90
7516;DHT22;3799;47.184;8.538;2022-09-20T09:03:02;14.30;99.90
7516;DHT22;3799;47.184;8.538;2022-09-20T09:05:42;14.60;99.90
7516;DHT22;3799;47.184;8.538;2022-09-20T09:08:09;14.60;99.90
7516;DHT22;3799;47.184;8.538;2022-09-20T09:10:41;14.80;99.80
7516;DHT22;3799;47.184;8.538;2022-09-20T09:13:09;15.00;99.00
7516;DHT22;3799;47.184;8.538;2022-09-20T09:15:37;15.30;98.70
7516;DHT22;3799;47.184;8.538;2022-09-20T09:18:04;15.50;97.80
7516;DHT22;3799;47.184;8.538;2022-09-20T09:20:30;15.40;96.50
7516;DHT22;3799;47.184;8.538;2022-09-20T09:23:05;15.50;95.50
7516;DHT22;3799;47.184;8.538;2022-09-20T09:25:39;15.80;95.00
7516;DHT22;3799;47.184;8.538;2022-09-20T09:30:31;16.50;92.80
7516;DHT22;3799;47.184;8.538;2022-09-20T09:33:17;16.60;91.70
7516;DHT22;3799;47.184;8.538;2022-09-20T09:38:44;16.80;84.70
7516;DHT22;3799;47.184;8.538;2022-09-20T09:41:19;16.90;81.70
7516;DHT22;3799;47.184;8.538;2022-09-20T09:43:56;16.70;78.10
7516;DHT22;3799;47.184;8.538;2022-09-20T09:46:23;16.80;78.40
7516;DHT22;3799;47.184;8.538;2022-09-20T09:51:35;16.90;77.10
7516;DHT22;3799;47.184;8.538;2022-09-20T09:54:01;16.60;75.80
7516;DHT22;3799;47.184;8.538;2022-09-20T09:57:01;17.10;74.30
7516;DHT22;3799;47.184;8.538;2022-09-20T09:59:28;17.10;71.90
7516;DHT22;3799;47.184;8.538;2022-09-20T10:02:12;16.90;67.90
7516;DHT22;3799;47.184;8.538;2022-09-20T10:09:54;17.20;66.10
7516;DHT22;3799;47.184;8.538;2022-09-20T10:12:43;17.20;66.00
7516;DHT22;3799;47.184;8.538;2022-09-20T10:22:52;18.00;59.00
7516;DHT22;3799;47.184;8.538;2022-09-20T10:33:51;18.10;57.30
7516;DHT22;3799;47.184;8.538;2022-09-20T10:36:33;18.40;57.60
7516;DHT22;3799;47.184;8.538;2022-09-20T10:39:08;18.40;56.30
7516;DHT22;3799;47.184;8.538;2022-09-20T10:49:35;18.70;54.40
7516;DHT22;3799;47.184;8.538;2022-09-20T10:54:40;19.10;53.50
7516;DHT22;3799;47.184;8.538;2022-09-20T11:00:03;19.10;50.80
7516;DHT22;3799;47.184;8.538;2022-09-20T11:12:38;19.50;50.70
7516;DHT22;3799;47.184;8.538;2022-09-20T11:15:18;20.10;50.40
7516;DHT22;3799;47.184;8.538;2022-09-20T11:18:06;20.20;49.10
7516;DHT22;3799;47.184;8.538;2022-09-20T11:20:44;20.30;50.40
7516;DHT22;3799;47.184;8.538;2022-09-20T11:23:18;20.30;48.80
7516;DHT22;3799;47.184;8.538;2022-09-20T11:25:49;20.50;47.50
7516;DHT22;3799;47.184;8.538;2022-09-20T11:28:32;20.90;47.80
7516;DHT22;3799;47.184;8.538;2022-09-20T11:33:58;21.00;47.10
7516;DHT22;3799;47.184;8.538;2022-09-20T11:36:29;21.20;46.00
7516;DHT22;3799;47.184;8.538;2022-09-20T11:39:04;21.10;48.60
7516;DHT22;3799;47.184;8.538;2022-09-20T11:41:34;21.40;48.00
7516;DHT22;3799;47.184;8.538;2022-09-20T11:44:07;21.70;47.70
7516;DHT22;3799;47.184;8.538;2022-09-20T11:46:42;21.90;46.60
7516;DHT22;3799;47.184;8.538;2022-09-20T11:49:13;22.10;46.80
7516;DHT22;3799;47.184;8.538;2022-09-20T11:57:03;22.40;47.20
7516;DHT22;3799;47.184;8.538;2022-09-20T11:59:34;22.60;47.90
7516;DHT22;3799;47.184;8.538;2022-09-20T12:02:02;22.90;46.70
7516;DHT22;3799;47.184;8.538;2022-09-20T12:04:29;23.00;47.10
7516;DHT22;3799;47.184;8.538;2022-09-20T12:07:06;23.00;44.10
7516;DHT22;3799;47.184;8.538;2022-09-20T12:09:39;22.90;43.20
7516;DHT22;3799;47.184;8.538;2022-09-20T12:14:55;23.20;45.60
7516;DHT22;3799;47.184;8.538;2022-09-20T12:22:50;23.80;43.50
7516;DHT22;3799;47.184;8.538;2022-09-20T12:25:32;24.00;44.70
7516;DHT22;3799;47.184;8.538;2022-09-20T12:27:59;24.10;44.80
7516;DHT22;3799;47.184;8.538;2022-09-20T12:30:24;24.20;44.50
7516;DHT22;3799;47.184;8.538;2022-09-20T12:32:51;24.10;43.40
7516;DHT22;3799;47.184;8.538;2022-09-20T12:40:57;22.20;45.60
7516;DHT22;3799;47.184;8.538;2022-09-20T12:43:24;21.70;46.00
7516;DHT22;3799;47.184;8.538;2022-09-20T12:45:53;21.60;47.10
7516;DHT22;3799;47.184;8.538;2022-09-20T12:48:19;21.80;45.60
7516;DHT22;3799;47.184;8.538;2022-09-20T12:50:59;22.00;46.00
7516;DHT22;3799;47.184;8.538;2022-09-20T12:53:56;22.60;45.40
7516;DHT22;3799;47.184;8.538;2022-09-20T12:56:22;23.30;43.80
7516;DHT22;3799;47.184;8.538;2022-09-20T12:58:52;23.70;41.90
7516;DHT22;3799;47.184;8.538;2022-09-20T13:03:45;24.50;42.20
7516;DHT22;3799;47.184;8.538;2022-09-20T13:11:11;25.10;39.70
7516;DHT22;3799;47.184;8.538;2022-09-20T13:13:39;25.20;39.80
7516;DHT22;3799;47.184;8.538;2022-09-20T13:16:17;25.30;39.50
7516;DHT22;3799;47.184;8.538;2022-09-20T13:18:44;25.40;39.70
7516;DHT22;3799;47.184;8.538;2022-09-20T13:21:11;25.60;40.70
7516;DHT22;3799;47.184;8.538;2022-09-20T13:23:43;25.90;40.80
7516;DHT22;3799;47.184;8.538;2022-09-20T13:26:09;26.20;40.50
7516;DHT22;3799;47.184;8.538;2022-09-20T13:28:41;26.50;39.50
7516;DHT22;3799;47.184;8.538;2022-09-20T13:31:41;26.80;38.00
7516;DHT22;3799;47.184;8.538;2022-09-20T13:34:18;26.30;38.60
7516;DHT22;3799;47.184;8.538;2022-09-20T13:36:44;25.10;39.20
7516;DHT22;3799;47.184;8.538;2022-09-20T13:39:25;24.30;39.70
7516;DHT22;3799;47.184;8.538;2022-09-20T13:41:51;24.00;39.70
7516;DHT22;3799;47.184;8.538;2022-09-20T13:44:17;23.50;39.20
7516;DHT22;3799;47.184;8.538;2022-09-20T13:46:43;22.70;40.40
7516;DHT22;3799;47.184;8.538;2022-09-20T13:49:16;22.10;41.00
7516;DHT22;3799;47.184;8.538;2022-09-20T13:51:45;22.00;41.50
7516;DHT22;3799;47.184;8.538;2022-09-20T13:56:42;21.60;41.10
7516;DHT22;3799;47.184;8.538;2022-09-20T13:59:09;22.10;41.20
7516;DHT22;3799;47.184;8.538;2022-09-20T14:01:38;22.70;39.70
7516;DHT22;3799;47.184;8.538;2022-09-20T14:04:12;23.50;39.10
7516;DHT22;3799;47.184;8.538;2022-09-20T14:06:38;24.10;38.30
7516;DHT22;3799;47.184;8.538;2022-09-20T14:09:05;24.40;38.60
7516;DHT22;3799;47.184;8.538;2022-09-20T14:11:32;24.50;38.90
7516;DHT22;3799;47.184;8.538;2022-09-20T14:14:02;24.40;39.50
7516;DHT22;3799;47.184;8.538;2022-09-20T14:16:33;24.50;39.20
7516;DHT22;3799;47.184;8.538;2022-09-20T14:18:59;24.80;38.20
7516;DHT22;3799;47.184;8.538;2022-09-20T14:21:26;25.40;37.70
7516;DHT22;3799;47.184;8.538;2022-09-20T14:23:53;25.80;35.80
7516;DHT22;3799;47.184;8.538;2022-09-20T14:28:45;26.20;34.90
7516;DHT22;3799;47.184;8.538;2022-09-20T14:31:15;26.40;34.70
7516;DHT22;3799;47.184;8.538;2022-09-20T14:33:43;26.50;34.50
7516;DHT22;3799;47.184;8.538;2022-09-20T14:36:13;26.60;35.30
7516;DHT22;3799;47.184;8.538;2022-09-20T14:38:42;26.50;35.00
7516;DHT22;3799;47.184;8.538;2022-09-20T14:41:08;26.50;35.30
7516;DHT22;3799;47.184;8.538;2022-09-20T14:43:34;26.30;37.20
7516;DHT22;3799;47.184;8.538;2022-09-20T14:46:01;26.40;37.40
7516;DHT22;3799;47.184;8.538;2022-09-20T14:48:37;26.60;37.30
7516;DHT22;3799;47.184;8.538;2022-09-20T14:53:44;26.50;37.00
7516;DHT22;3799;47.184;8.538;2022-09-20T14:56:12;26.40;38.10
7516;DHT22;3799;47.184;8.538;2022-09-20T15:01:23;26.10;37.30
7516;DHT22;3799;47.184;8.538;2022-09-20T15:03:50;25.60;38.30
7516;DHT22;3799;47.184;8.538;2022-09-20T15:06:15;25.30;37.60
7516;DHT22;3799;47.184;8.538;2022-09-20T15:08:41;24.70;37.60
7516;DHT22;3799;47.184;8.538;2022-09-20T15:11:11;23.80;38.80
7516;DHT22;3799;47.184;8.538;2022-09-20T15:13:38;23.50;40.10
7516;DHT22;3799;47.184;8.538;2022-09-20T15:16:04;23.90;39.80
7516;DHT22;3799;47.184;8.538;2022-09-20T15:18:31;23.70;39.70
7516;DHT22;3799;47.184;8.538;2022-09-20T15:20:58;23.10;39.90
7516;DHT22;3799;47.184;8.538;2022-09-20T15:23:25;22.50;40.90
7516;DHT22;3799;47.184;8.538;2022-09-20T15:25:51;22.00;41.70
7516;DHT22;3799;47.184;8.538;2022-09-20T15:28:17;21.80;42.00
7516;DHT22;3799;47.184;8.538;2022-09-20T15:30:43;21.40;42.10
7516;DHT22;3799;47.184;8.538;2022-09-20T15:33:10;21.00;42.50
7516;DHT22;3799;47.184;8.538;2022-09-20T15:35:36;21.10;42.30
7516;DHT22;3799;47.184;8.538;2022-09-20T15:38:02;21.40;41.70
7516;DHT22;3799;47.184;8.538;2022-09-20T15:40:27;21.90;41.40
7516;DHT22;3799;47.184;8.538;2022-09-20T15:42:54;22.40;41.20
7516;DHT22;3799;47.184;8.538;2022-09-20T15:45:20;22.90;40.90
7516;DHT22;3799;47.184;8.538;2022-09-20T15:47:45;23.10;40.50
7516;DHT22;3799;47.184;8.538;2022-09-20T15:50:11;23.30;39.40
7516;DHT22;3799;47.184;8.538;2022-09-20T15:52:37;23.30;39.80
7516;DHT22;3799;47.184;8.538;2022-09-20T15:55:05;23.30;39.90
7516;DHT22;3799;47.184;8.538;2022-09-20T15:57:31;23.30;40.30
7516;DHT22;3799;47.184;8.538;2022-09-20T15:59:57;23.50;40.70
7516;DHT22;3799;47.184;8.538;2022-09-20T16:02:24;23.70;40.70
7516;DHT22;3799;47.184;8.538;2022-09-20T16:04:49;23.80;40.40
7516;DHT22;3799;47.184;8.538;2022-09-20T16:07:19;24.00;39.60
7516;DHT22;3799;47.184;8.538;2022-09-20T16:09:53;24.00;40.00
7516;DHT22;3799;47.184;8.538;2022-09-20T16:12:19;23.70;39.80
7516;DHT22;3799;47.184;8.538;2022-09-20T16:14:45;23.20;41.20
7516;DHT22;3799;47.184;8.538;2022-09-20T16:17:11;22.60;41.90
7516;DHT22;3799;47.184;8.538;2022-09-20T16:19:36;21.80;42.40
7516;DHT22;3799;47.184;8.538;2022-09-20T16:22:03;21.00;43.20
7516;DHT22;3799;47.184;8.538;2022-09-20T16:24:32;20.60;44.10
7516;DHT22;3799;47.184;8.538;2022-09-20T16:26:59;20.20;44.80
7516;DHT22;3799;47.184;8.538;2022-09-20T16:29:26;19.80;44.60
7516;DHT22;3799;47.184;8.538;2022-09-20T16:31:53;19.40;44.30
7516;DHT22;3799;47.184;8.538;2022-09-20T16:34:23;19.20;44.50
7516;DHT22;3799;47.184;8.538;2022-09-20T16:36:53;19.10;45.60
7516;DHT22;3799;47.184;8.538;2022-09-20T16:39:20;19.40;45.70
7516;DHT22;3799;47.184;8.538;2022-09-20T16:41:49;19.70;46.00
7516;DHT22;3799;47.184;8.538;2022-09-20T16:44:16;19.50;45.60
7516;DHT22;3799;47.184;8.538;2022-09-20T16:46:43;19.50;45.70
7516;DHT22;3799;47.184;8.538;2022-09-20T16:49:08;19.60;45.90
7516;DHT22;3799;47.184;8.538;2022-09-20T16:51:36;19.90;46.10
7516;DHT22;3799;47.184;8.538;2022-09-20T16:54:03;19.70;46.00
7516;DHT22;3799;47.184;8.538;2022-09-20T16:56:30;19.70;45.50
7516;DHT22;3799;47.184;8.538;2022-09-20T16:58:58;19.10;45.40
7516;DHT22;3799;47.184;8.538;2022-09-20T17:01:24;18.90;45.70
7516;DHT22;3799;47.184;8.538;2022-09-20T17:03:50;18.40;46.70
7516;DHT22;3799;47.184;8.538;2022-09-20T17:06:16;18.10;47.00
7516;DHT22;3799;47.184;8.538;2022-09-20T17:08:43;17.90;47.30
7516;DHT22;3799;47.184;8.538;2022-09-20T17:11:14;17.40;47.50
7516;DHT22;3799;47.184;8.538;2022-09-20T17:13:41;17.00;47.70
7516;DHT22;3799;47.184;8.538;2022-09-20T17:16:08;16.90;48.50
7516;DHT22;3799;47.184;8.538;2022-09-20T17:18:34;16.90;48.70
7516;DHT22;3799;47.184;8.538;2022-09-20T17:21:06;16.90;48.90
7516;DHT22;3799;47.184;8.538;2022-09-20T17:23:32;16.80;49.20
7516;DHT22;3799;47.184;8.538;2022-09-20T17:26:02;16.30;49.40
7516;DHT22;3799;47.184;8.538;2022-09-20T17:28:37;16.20;49.80
7516;DHT22;3799;47.184;8.538;2022-09-20T17:31:03;16.30;50.60
7516;DHT22;3799;47.184;8.538;2022-09-20T17:33:30;15.90;50.80
7516;DHT22;3799;47.184;8.538;2022-09-20T17:35:56;15.90;51.20
7516;DHT22;3799;47.184;8.538;2022-09-20T17:38:26;15.70;51.40
7516;DHT22;3799;47.184;8.538;2022-09-20T17:40:59;15.50;51.70
7516;DHT22;3799;47.184;8.538;2022-09-20T17:43:25;15.40;52.00
7516;DHT22;3799;47.184;8.538;2022-09-20T17:45:51;15.10;52.10
7516;DHT22;3799;47.184;8.538;2022-09-20T17:48:17;15.20;52.40
7516;DHT22;3799;47.184;8.538;2022-09-20T17:50:53;15.30;52.60
7516;DHT22;3799;47.184;8.538;2022-09-20T17:53:18;14.90;52.60
7516;DHT22;3799;47.184;8.538;2022-09-20T17:55:51;14.80;53.00
7516;DHT22;3799;47.184;8.538;2022-09-20T17:58:16;14.70;53.20
7516;DHT22;3799;47.184;8.538;2022-09-20T18:00:42;14.70;53.60
7516;DHT22;3799;47.184;8.538;2022-09-20T18:03:07;14.60;54.10
7516;DHT22;3799;47.184;8.538;2022-09-20T18:05:33;14.20;54.20
7516;DHT22;3799;47.184;8.538;2022-09-20T18:08:01;14.10;54.40
7516;DHT22;3799;47.184;8.538;2022-09-20T18:10:27;14.00;54.90
7516;DHT22;3799;47.184;8.538;2022-09-20T18:12:53;14.10;55.40
7516;DHT22;3799;47.184;8.538;2022-09-20T18:15:18;14.00;55.80
7516;DHT22;3799;47.184;8.538;2022-09-20T18:17:44;14.20;56.30
7516;DHT22;3799;47.184;8.538;2022-09-20T18:20:10;14.10;56.60
7516;DHT22;3799;47.184;8.538;2022-09-20T18:22:35;14.10;57.00
7516;DHT22;3799;47.184;8.538;2022-09-20T18:25:02;14.10;57.50
7516;DHT22;3799;47.184;8.538;2022-09-20T18:27:27;14.00;57.70
7516;DHT22;3799;47.184;8.538;2022-09-20T18:29:53;14.10;58.10
7516;DHT22;3799;47.184;8.538;2022-09-20T18:32:19;13.80;58.20
7516;DHT22;3799;47.184;8.538;2022-09-20T18:34:44;13.90;58.70
7516;DHT22;3799;47.184;8.538;2022-09-20T18:37:15;13.90;59.00
7516;DHT22;3799;47.184;8.538;2022-09-20T18:39:41;13.90;59.50
7516;DHT22;3799;47.184;8.538;2022-09-20T18:42:07;13.90;60.00
7516;DHT22;3799;47.184;8.538;2022-09-20T18:44:33;13.80;61.20
7516;DHT22;3799;47.184;8.538;2022-09-20T18:47:00;14.00;63.00
7516;DHT22;3799;47.184;8.538;2022-09-20T18:49:28;13.80;64.30
7516;DHT22;3799;47.184;8.538;2022-09-20T18:51:54;13.80;65.20
7516;DHT22;3799;47.184;8.538;2022-09-20T18:54:20;13.70;66.00
7516;DHT22;3799;47.184;8.538;2022-09-20T18:56:47;13.80;67.20
7516;DHT22;3799;47.184;8.538;2022-09-20T18:59:24;13.70;68.20
7516;DHT22;3799;47.184;8.538;2022-09-20T19:12:18;13.50;74.50
7516;DHT22;3799;47.184;8.538;2022-09-20T19:17:14;13.50;75.50
7516;DHT22;3799;47.184;8.538;2022-09-20T19:19:55;13.40;75.80
7516;DHT22;3799;47.184;8.538;2022-09-20T19:27:29;13.90;78.30
7516;DHT22;3799;47.184;8.538;2022-09-20T19:29:54;13.60;78.70
7516;DHT22;3799;47.184;8.538;2022-09-20T19:32:20;13.70;79.90
7516;DHT22;3799;47.184;8.538;2022-09-20T19:34:51;13.50;80.20
7516;DHT22;3799;47.184;8.538;2022-09-20T19:37:23;13.60;81.20
7516;DHT22;3799;47.184;8.538;2022-09-20T19:42:37;13.70;83.20
7516;DHT22;3799;47.184;8.538;2022-09-20T19:47:53;13.50;84.40
7516;DHT22;3799;47.184;8.538;2022-09-20T19:50:37;13.20;83.30
7516;DHT22;3799;47.184;8.538;2022-09-20T19:53:04;13.40;84.70
7516;DHT22;3799;47.184;8.538;2022-09-20T19:55:30;13.00;85.00
7516;DHT22;3799;47.184;8.538;2022-09-20T19:57:56;13.40;86.90
7516;DHT22;3799;47.184;8.538;2022-09-20T20:00:23;13.10;87.60
7516;DHT22;3799;47.184;8.538;2022-09-20T20:02:48;13.10;89.00
7516;DHT22;3799;47.184;8.538;2022-09-20T20:05:15;12.80;89.80
7516;DHT22;3799;47.184;8.538;2022-09-20T20:07:54;12.90;90.40
7516;DHT22;3799;47.184;8.538;2022-09-20T20:22:53;12.40;93.40
7516;DHT22;3799;47.184;8.538;2022-09-20T20:25:27;12.50;93.80
7516;DHT22;3799;47.184;8.538;2022-09-20T20:27:54;12.80;94.10
7516;DHT22;3799;47.184;8.538;2022-09-20T20:30:19;12.60;94.00
7516;DHT22;3799;47.184;8.538;2022-09-20T20:32:45;12.80;94.30
7516;DHT22;3799;47.184;8.538;2022-09-20T20:35:10;12.90;94.20
7516;DHT22;3799;47.184;8.538;2022-09-20T20:37:38;12.80;93.80
7516;DHT22;3799;47.184;8.538;2022-09-20T20:40:04;12.60;92.90
7516;DHT22;3799;47.184;8.538;2022-09-20T20:42:31;12.60;92.40
7516;DHT22;3799;47.184;8.538;2022-09-20T20:44:56;12.60;92.00
7516;DHT22;3799;47.184;8.538;2022-09-20T20:47:23;12.30;91.50
7516;DHT22;3799;47.184;8.538;2022-09-20T20:49:48;12.40;91.60
7516;DHT22;3799;47.184;8.538;2022-09-20T20:52:17;12.30;91.40
7516;DHT22;3799;47.184;8.538;2022-09-20T20:54:43;12.30;91.50
7516;DHT22;3799;47.184;8.538;2022-09-20T20:57:09;12.20;91.50
7516;DHT22;3799;47.184;8.538;2022-09-20T20:59:35;12.40;91.60
7516;DHT22;3799;47.184;8.538;2022-09-20T21:02:00;12.20;91.50
7516;DHT22;3799;47.184;8.538;2022-09-20T21:04:26;12.20;91.70
7516;DHT22;3799;47.184;8.538;2022-09-20T21:06:52;12.10;91.90
7516;DHT22;3799;47.184;8.538;2022-09-20T21:09:18;12.10;92.40
7516;DHT22;3799;47.184;8.538;2022-09-20T21:11:44;12.00;92.70
7516;DHT22;3799;47.184;8.538;2022-09-20T21:14:12;12.20;93.20
7516;DHT22;3799;47.184;8.538;2022-09-20T21:16:39;12.10;93.10
7516;DHT22;3799;47.184;8.538;2022-09-20T21:19:07;12.40;93.20
7516;DHT22;3799;47.184;8.538;2022-09-20T21:21:35;12.50;92.80
7516;DHT22;3799;47.184;8.538;2022-09-20T21:24:02;12.40;92.40
7516;DHT22;3799;47.184;8.538;2022-09-20T21:26:29;12.30;92.30
7516;DHT22;3799;47.184;8.538;2022-09-20T21:28:58;12.20;91.90
7516;DHT22;3799;47.184;8.538;2022-09-20T21:31:31;12.10;91.70
7516;DHT22;3799;47.184;8.538;2022-09-20T21:33:57;12.20;91.80